Main page
METAR-TAF:

METAR-TAF

Airports :

Ankara Esenboğa, Turkey

Esenboğa International Airport

latitude: 40-07N, longitude: 032-59E, elevation: 953 m

Current weather observation

The report was made 47 minutes ago, at 21:50 UTC
Calm wind
Temperature 7°C
Humidity 53%
Pressure 1019 hPa
Visibility 10 km or more
no clouds below 1500 m and no cumulonimbus

METAR: LTAC 272150Z 00000KT CAVOK 07/M02 Q1019 NOSIG RMK RWY21L VRB01KT RWY03L VRB01KT RWY21R 32002KT

Time: 01:37 (22:37 UTC)

Forecast

The report was made 5 hours and 57 minutes ago, at 16:40 UTC
Forecast valid from 27 at 18 UTC to 28 at 18 UTC
Wind 2 kt from variable directions
Visibility 10 km or more
no clouds below 1500 m and no cumulonimbus

TAF: LTAC 271640Z 2718/2818 VRB02KT CAVOK

Weather observations and forecasts of more than 4000 airports (METAR and TAF reports).

The available stations are represented by yellow and red dots on the map.

Hover mouse over dot to see the name of the station.

Then click to see weather observations and forecasts.

To change the map : click on the green buttons with a black cross to zoom in, on the green button with a dash to zoom out, or on the green arrows for adjacent maps.


METAR-TAF: